Time,TemperatureF,DewpointF,PressureIn,WindDirection,WindDirectionDegrees,WindSpeedMPH,WindSpeedGustMPH,Humidity,HourlyPrecipIn,Conditions,Clouds,dailyrainin,SoftwareType,DateUTC
2013-01-12 00:12:00,39.0,37.0,-100.00,South,170,9.0,12.0,97,0.00,,,0.00,,2013-01-12 00:12:00,
2013-01-12 00:32:00,39.0,39.0,-100.00,SSE,160,10.0,15.0,96,0.00,,,0.00,,2013-01-12 00:32:00,
2013-01-12 00:42:00,39.0,39.0,-100.00,SSE,165,12.0,15.0,96,0.00,,,0.00,,2013-01-12 00:42:00,
2013-01-12 01:22:00,39.0,39.0,-100.00,South,180,14.0,16.0,96,0.00,,,0.00,,2013-01-12 01:22:00,
2013-01-12 01:32:00,39.0,39.0,-100.00,South,175,13.0,17.0,96,0.00,,,0.00,,2013-01-12 01:32:00,
2013-01-12 01:42:00,39.0,39.0,-100.00,South,170,14.0,17.0,96,0.00,,,0.00,,2013-01-12 01:42:00,
2013-01-12 01:52:00,39.0,39.0,-100.00,South,175,15.0,17.0,96,0.00,,,0.00,,2013-01-12 01:52:00,
2013-01-12 02:02:00,39.0,39.0,-100.00,South,175,14.0,19.0,96,0.00,,,0.00,,2013-01-12 02:02:00,
2013-01-12 02:12:00,40.0,39.0,-100.00,South,180,14.0,19.0,96,0.00,,,0.00,,2013-01-12 02:12:00,
2013-01-12 02:22:00,40.0,39.0,-100.00,South,175,12.0,16.0,96,0.00,,,0.00,,2013-01-12 02:22:00,
2013-01-12 02:32:00,40.0,39.0,-100.00,South,180,12.0,16.0,96,0.00,,,0.00,,2013-01-12 02:32:00,
2013-01-12 02:42:00,40.0,39.0,-100.00,South,185,11.0,15.0,96,0.00,,,0.00,,2013-01-12 02:42:00,
2013-01-12 02:52:00,40.0,39.0,-100.00,South,185,9.0,14.0,96,0.00,,,0.00,,2013-01-12 02:52:00,
2013-01-12 03:02:00,40.0,39.0,-100.00,South,185,10.0,14.0,96,0.00,,,0.00,,2013-01-12 03:02:00,
2013-01-12 03:12:00,40.0,39.0,-100.00,South,190,9.0,12.0,96,0.00,,,0.00,,2013-01-12 03:12:00,
2013-01-12 03:22:00,40.0,39.0,-100.00,SSW,200,10.0,14.0,96,0.00,,,0.00,,2013-01-12 03:22:00,
2013-01-12 03:32:00,41.0,39.0,-100.00,SSW,195,13.0,21.0,96,0.00,,,0.00,,2013-01-12 03:32:00,
2013-01-12 03:42:00,40.0,39.0,-100.00,South,190,14.0,18.0,96,0.00,,,0.00,,2013-01-12 03:42:00,
2013-01-12 03:52:00,40.0,39.0,-100.00,SSW,195,13.0,18.0,96,0.00,,,0.00,,2013-01-12 03:52:00,
2013-01-12 04:02:00,40.0,39.0,-100.00,SSW,205,14.0,20.0,96,0.00,,,0.00,,2013-01-12 04:02:00,
2013-01-12 04:12:00,41.0,39.0,-100.00,SSW,210,14.0,19.0,96,0.00,,,0.00,,2013-01-12 04:12:00,
2013-01-12 04:22:00,40.0,39.0,-100.00,SSW,205,12.0,17.0,96,0.00,,,0.00,,2013-01-12 04:22:00,
2013-01-12 04:32:00,40.0,39.0,-100.00,SSW,210,13.0,18.0,96,0.00,,,0.00,,2013-01-12 04:32:00,
2013-01-12 04:42:00,40.0,39.0,-100.00,SSW,210,11.0,16.0,96,0.00,,,0.00,,2013-01-12 04:42:00,
2013-01-12 04:52:00,40.0,39.0,-100.00,SW,215,11.0,17.0,96,0.00,,,0.00,,2013-01-12 04:52:00,
2013-01-12 05:03:00,39.0,39.0,-100.00,SW,220,11.0,17.0,96,0.00,,,0.00,,2013-01-12 05:03:00,
2013-01-12 05:12:00,39.0,39.0,-100.00,SW,220,11.0,17.0,96,0.00,,,0.00,,2013-01-12 05:12:00,
2013-01-12 05:22:00,39.0,37.0,-100.00,SW,225,11.0,15.0,96,0.00,,,0.00,,2013-01-12 05:22:00,
2013-01-12 05:32:00,38.0,37.0,-100.00,SW,235,10.0,16.0,96,0.00,,,0.00,,2013-01-12 05:32:00,
2013-01-12 05:42:00,37.0,37.0,-100.00,WSW,240,11.0,19.0,96,0.00,,,0.00,,2013-01-12 05:42:00,
2013-01-12 05:52:00,37.0,37.0,-100.00,SW,235,9.0,14.0,96,0.00,,,0.00,,2013-01-12 05:52:00,
2013-01-12 06:02:00,37.0,36.0,-100.00,SW,230,9.0,14.0,96,0.00,,,0.00,,2013-01-12 06:02:00,
2013-01-12 06:12:00,36.0,36.0,-100.00,SW,230,7.0,12.0,96,0.00,,,0.00,,2013-01-12 06:12:00,
2013-01-12 06:22:00,36.0,36.0,-100.00,WSW,240,12.0,17.0,96,0.00,,,0.00,,2013-01-12 06:22:00,
2013-01-12 06:32:00,36.0,36.0,-100.00,WSW,240,12.0,15.0,96,0.00,,,0.00,,2013-01-12 06:32:00,
2013-01-12 06:42:00,36.0,34.0,-100.00,SW,220,11.0,17.0,95,0.00,,,0.00,,2013-01-12 06:42:00,
2013-01-12 06:52:00,36.0,34.0,-100.00,SW,235,15.0,19.0,93,0.00,,,0.00,,2013-01-12 06:52:00,
2013-01-12 07:02:00,35.0,34.0,-100.00,WSW,240,15.0,22.0,91,0.00,,,0.00,,2013-01-12 07:02:00,
2013-01-12 07:12:00,35.0,34.0,-100.00,WSW,240,17.0,24.0,91,0.00,,,0.00,,2013-01-12 07:12:00,
2013-01-12 07:22:00,35.0,32.0,-100.00,WSW,245,16.0,24.0,90,0.00,,,0.00,,2013-01-12 07:22:00,
2013-01-12 07:32:00,34.0,32.0,-100.00,WSW,255,17.0,26.0,90,0.00,,,0.00,,2013-01-12 07:32:00,
2013-01-12 07:42:00,32.0,30.0,-100.00,West,275,17.0,27.0,92,0.00,,,0.00,,2013-01-12 07:42:00,
2013-01-12 07:52:00,31.0,30.0,-100.00,West,260,16.0,24.0,93,0.00,,,0.00,,2013-01-12 07:52:00,
2013-01-12 08:02:00,29.0,28.0,-100.00,West,280,19.0,26.0,93,0.00,,,0.00,,2013-01-12 08:02:00,
2013-01-12 08:11:00,29.0,27.0,-100.00,West,265,19.0,26.0,93,0.00,,,0.00,,2013-01-12 08:11:00,
2013-01-12 08:22:00,28.0,27.0,-100.00,West,270,18.0,26.0,92,0.00,,,0.00,,2013-01-12 08:22:00,
2013-01-12 08:32:00,27.0,25.0,-100.00,West,270,21.0,27.0,92,0.00,,,0.00,,2013-01-12 08:32:00,
2013-01-12 08:42:00,27.0,25.0,-100.00,West,275,17.0,27.0,92,0.00,,,0.00,,2013-01-12 08:42:00,
2013-01-12 08:52:00,27.0,25.0,-100.00,West,270,20.0,27.0,91,0.00,,,0.00,,2013-01-12 08:52:00,
2013-01-12 09:02:00,26.0,23.0,-100.00,West,270,20.0,26.0,90,0.00,,,0.00,,2013-01-12 09:02:00,
2013-01-12 09:12:00,26.0,21.0,-100.00,West,265,21.0,33.0,86,0.00,,,0.00,,2013-01-12 09:12:00,
2013-01-12 09:22:00,25.0,19.0,-100.00,West,265,25.0,32.0,81,0.00,,,0.00,,2013-01-12 09:22:00,
2013-01-12 09:32:00,25.0,19.0,-100.00,West,265,19.0,27.0,81,0.00,,,0.00,,2013-01-12 09:32:00,
2013-01-12 09:42:00,24.0,19.0,-100.00,West,260,24.0,29.0,81,0.00,,,0.00,,2013-01-12 09:42:00,
2013-01-12 09:52:00,23.0,18.0,-100.00,West,275,28.0,37.0,76,0.00,,,0.00,,2013-01-12 09:52:00,
2013-01-12 10:02:00,23.0,16.0,-100.00,West,280,24.0,34.0,76,0.00,,,0.00,,2013-01-12 10:02:00,
2013-01-12 10:12:00,22.0,16.0,-100.00,West,280,24.0,32.0,77,0.00,,,0.00,,2013-01-12 10:12:00,
2013-01-12 10:22:00,22.0,16.0,-100.00,West,270,23.0,37.0,77,0.00,,,0.00,,2013-01-12 10:22:00,
2013-01-12 10:32:00,21.0,16.0,-100.00,West,275,21.0,29.0,78,0.00,,,0.00,,2013-01-12 10:32:00,
2013-01-12 10:42:00,21.0,14.0,-100.00,West,270,24.0,31.0,77,0.00,,,0.00,,2013-01-12 10:42:00,
2013-01-12 10:52:00,20.0,14.0,-100.00,West,280,26.0,34.0,76,0.00,,,0.00,,2013-01-12 10:52:00,
2013-01-12 11:02:00,20.0,14.0,-100.00,WNW,290,21.0,30.0,77,0.00,,,0.00,,2013-01-12 11:02:00,
2013-01-12 11:12:00,20.0,14.0,-100.00,West,280,23.0,32.0,75,0.00,,,0.00,,2013-01-12 11:12:00,
2013-01-12 11:22:00,20.0,14.0,-100.00,West,275,22.0,29.0,75,0.00,,,0.00,,2013-01-12 11:22:00,
2013-01-12 11:32:00,20.0,14.0,-100.00,West,270,19.0,31.0,76,0.00,,,0.00,,2013-01-12 11:32:00,
2013-01-12 11:42:00,19.0,14.0,-100.00,West,275,23.0,30.0,78,0.00,,,0.00,,2013-01-12 11:42:00,
2013-01-12 11:52:00,18.0,10.0,-100.00,West,275,24.0,34.0,71,0.00,,,0.00,,2013-01-12 11:52:00,
2013-01-12 12:02:00,18.0,10.0,-100.00,West,275,26.0,32.0,70,0.00,,,0.00,,2013-01-12 12:02:00,
2013-01-12 12:12:00,18.0,12.0,-100.00,West,275,20.0,30.0,74,0.00,,,0.00,,2013-01-12 12:12:00,
2013-01-12 12:22:00,18.0,10.0,-100.00,West,280,24.0,32.0,73,0.00,,,0.00,,2013-01-12 12:22:00,
2013-01-12 12:32:00,18.0,10.0,-100.00,West,275,22.0,32.0,72,0.00,,,0.00,,2013-01-12 12:32:00,
2013-01-12 12:42:00,18.0,10.0,-100.00,West,260,24.0,32.0,70,0.00,,,0.00,,2013-01-12 12:42:00,
2013-01-12 12:52:00,17.0,9.0,-100.00,West,270,22.0,30.0,70,0.00,,,0.00,,2013-01-12 12:52:00,
2013-01-12 13:02:00,17.0,9.0,-100.00,West,280,23.0,30.0,70,0.00,,,0.00,,2013-01-12 13:02:00,
2013-01-12 13:12:00,17.0,9.0,-100.00,West,270,20.0,30.0,71,0.00,,,0.00,,2013-01-12 13:12:00,
2013-01-12 13:22:00,17.0,9.0,-100.00,West,270,20.0,29.0,71,0.00,,,0.00,,2013-01-12 13:22:00,
2013-01-12 13:33:00,16.0,9.0,-100.00,West,265,22.0,34.0,71,0.00,,,0.00,,2013-01-12 13:33:00,
2013-01-12 13:42:00,15.0,9.0,-100.00,West,265,21.0,30.0,74,0.00,,,0.00,,2013-01-12 13:42:00,
2013-01-12 13:52:00,15.0,9.0,-100.00,West,270,17.0,27.0,73,0.00,,,0.00,,2013-01-12 13:52:00,
2013-01-12 14:02:00,15.0,7.0,-100.00,West,275,22.0,28.0,73,0.00,,,0.00,,2013-01-12 14:02:00,
2013-01-12 14:12:00,14.0,7.0,-100.00,West,260,19.0,24.0,72,0.00,,,0.00,,2013-01-12 14:12:00,
2013-01-12 14:22:00,14.0,7.0,-100.00,West,280,15.0,26.0,73,0.00,,,0.00,,2013-01-12 14:22:00,
2013-01-12 14:32:00,13.0,7.0,-100.00,West,260,17.0,23.0,72,0.00,,,0.00,,2013-01-12 14:32:00,
2013-01-12 14:43:00,13.0,7.0,-100.00,West,275,16.0,22.0,74,0.00,,,0.00,,2013-01-12 14:43:00,
2013-01-12 14:53:00,13.0,5.0,-100.00,West,270,19.0,26.0,72,0.00,,,0.00,,2013-01-12 14:53:00,
2013-01-12 15:03:00,13.0,5.0,-100.00,West,275,19.0,24.0,71,0.00,,,0.00,,2013-01-12 15:03:00,
2013-01-12 15:12:00,13.0,5.0,-100.00,West,275,19.0,26.0,71,0.00,,,0.00,,2013-01-12 15:12:00,
2013-01-12 15:22:00,13.0,5.0,-100.00,West,265,18.0,27.0,71,0.00,,,0.00,,2013-01-12 15:22:00,
2013-01-12 15:33:00,13.0,5.0,-100.00,West,265,19.0,28.0,71,0.00,,,0.00,,2013-01-12 15:33:00,
2013-01-12 15:42:00,12.0,5.0,-100.00,WNW,285,19.0,26.0,72,0.00,,,0.00,,2013-01-12 15:42:00,
2013-01-12 15:52:00,12.0,5.0,-100.00,West,280,17.0,24.0,69,0.00,,,0.00,,2013-01-12 15:52:00,
2013-01-12 16:03:00,13.0,5.0,-100.00,West,265,19.0,27.0,68,0.00,,,0.00,,2013-01-12 16:03:00,
2013-01-12 16:12:00,13.0,3.0,-100.00,WNW,285,20.0,26.0,67,0.00,,,0.00,,2013-01-12 16:12:00,
2013-01-12 16:23:00,12.0,3.0,-100.00,West,280,21.0,27.0,67,0.00,,,0.00,,2013-01-12 16:23:00,
2013-01-12 16:33:00,13.0,5.0,-100.00,West,270,18.0,26.0,69,0.00,,,0.00,,2013-01-12 16:33:00,
2013-01-12 16:42:00,12.0,3.0,-100.00,WNW,290,16.0,26.0,68,0.00,,,0.00,,2013-01-12 16:42:00,
2013-01-12 16:52:00,12.0,3.0,-100.00,West,280,19.0,25.0,66,0.00,,,0.00,,2013-01-12 16:52:00,
2013-01-12 17:02:00,12.0,3.0,-100.00,WNW,285,17.0,24.0,68,0.00,,,0.00,,2013-01-12 17:02:00,
2013-01-12 17:12:00,13.0,5.0,-100.00,West,275,16.0,22.0,69,0.00,,,0.00,,2013-01-12 17:12:00,
2013-01-12 17:22:00,12.0,3.0,-100.00,WNW,290,16.0,24.0,66,0.00,,,0.00,,2013-01-12 17:22:00,
2013-01-12 17:33:00,13.0,3.0,-100.00,West,275,20.0,23.0,67,0.00,,,0.00,,2013-01-12 17:33:00,
2013-01-12 17:42:00,13.0,5.0,-100.00,West,265,19.0,26.0,66,0.00,,,0.00,,2013-01-12 17:42:00,
2013-01-12 17:53:00,13.0,5.0,-100.00,West,265,21.0,27.0,66,0.00,,,0.00,,2013-01-12 17:53:00,
2013-01-12 18:03:00,13.0,3.0,-100.00,West,260,21.0,29.0,66,0.00,,,0.00,,2013-01-12 18:03:00,
2013-01-12 18:12:00,13.0,5.0,-100.00,WNW,285,21.0,26.0,67,0.00,,,0.00,,2013-01-12 18:12:00,
2013-01-12 18:22:00,12.0,3.0,-100.00,WNW,290,19.0,24.0,67,0.00,,,0.00,,2013-01-12 18:22:00,
2013-01-12 18:33:00,12.0,3.0,-100.00,West,265,22.0,26.0,66,0.00,,,0.00,,2013-01-12 18:33:00,
2013-01-12 18:42:00,11.0,3.0,-100.00,West,280,21.0,26.0,67,0.00,,,0.00,,2013-01-12 18:42:00,
2013-01-12 18:52:00,11.0,1.0,-100.00,WNW,290,18.0,24.0,65,0.00,,,0.00,,2013-01-12 18:52:00,
2013-01-12 19:03:00,11.0,3.0,-100.00,WNW,300,15.0,24.0,66,0.00,,,0.00,,2013-01-12 19:03:00,
2013-01-12 19:12:00,12.0,3.0,-100.00,West,270,20.0,25.0,66,0.00,,,0.00,,2013-01-12 19:12:00,
2013-01-12 19:23:00,12.0,3.0,-100.00,West,275,16.0,21.0,67,0.00,,,0.00,,2013-01-12 19:23:00,
2013-01-12 19:33:00,11.0,3.0,-100.00,West,270,16.0,24.0,66,0.00,,,0.00,,2013-01-12 19:33:00,
2013-01-12 19:42:00,11.0,3.0,-100.00,WNW,285,17.0,22.0,66,0.00,,,0.00,,2013-01-12 19:42:00,
2013-01-12 19:52:00,11.0,1.0,-100.00,West,280,17.0,24.0,64,0.00,,,0.00,,2013-01-12 19:52:00,
2013-01-12 20:02:00,11.0,1.0,-100.00,West,275,15.0,24.0,62,0.00,,,0.00,,2013-01-12 20:02:00,
2013-01-12 20:12:00,11.0,1.0,-100.00,WNW,285,15.0,20.0,64,0.00,,,0.00,,2013-01-12 20:12:00,
2013-01-12 20:22:00,11.0,1.0,-100.00,WNW,285,17.0,23.0,65,0.00,,,0.00,,2013-01-12 20:22:00,
2013-01-12 20:32:00,11.0,1.0,-100.00,WNW,295,16.0,21.0,66,0.00,,,0.00,,2013-01-12 20:32:00,
2013-01-12 20:42:00,11.0,1.0,-100.00,WNW,290,16.0,24.0,64,0.00,,,0.00,,2013-01-12 20:42:00,
2013-01-12 20:53:00,11.0,1.0,-100.00,WNW,285,14.0,22.0,63,0.00,,,0.00,,2013-01-12 20:53:00,
2013-01-12 21:03:00,11.0,1.0,-100.00,WNW,285,17.0,21.0,66,0.00,,,0.00,,2013-01-12 21:03:00,
2013-01-12 21:12:00,10.0,1.0,-100.00,WNW,295,16.0,21.0,66,0.00,,,0.00,,2013-01-12 21:12:00,
2013-01-12 21:22:00,10.0,1.0,-100.00,WNW,295,16.0,24.0,67,0.00,,,0.00,,2013-01-12 21:22:00,
2013-01-12 21:33:00,10.0,1.0,-100.00,WNW,290,16.0,23.0,65,0.00,,,0.00,,2013-01-12 21:33:00,
2013-01-12 21:42:00,11.0,1.0,-100.00,WNW,295,14.0,22.0,63,0.00,,,0.00,,2013-01-12 21:42:00,
2013-01-12 21:52:00,11.0,1.0,-100.00,NW,305,14.0,24.0,65,0.00,,,0.00,,2013-01-12 21:52:00,
2013-01-12 22:02:00,9.0,0.0,-100.00,NW,305,16.0,24.0,63,0.00,,,0.00,,2013-01-12 22:02:00,
2013-01-12 22:12:00,10.0,0.0,-100.00,WNW,295,13.0,22.0,64,0.00,,,0.00,,2013-01-12 22:12:00,
2013-01-12 22:22:00,9.0,0.0,-100.00,West,280,13.0,22.0,63,0.00,,,0.00,,2013-01-12 22:22:00,
2013-01-12 22:33:00,10.0,0.0,-100.00,WNW,285,12.0,19.0,63,0.00,,,0.00,,2013-01-12 22:33:00,
2013-01-12 22:43:00,10.0,0.0,-100.00,West,275,12.0,18.0,63,0.00,,,0.00,,2013-01-12 22:43:00,
2013-01-12 22:52:00,9.0,0.0,-100.00,West,280,15.0,20.0,62,0.00,,,0.00,,2013-01-12 22:52:00,
2013-01-12 23:02:00,9.0,0.0,-100.00,West,280,14.0,16.0,62,0.00,,,0.00,,2013-01-12 23:02:00,
2013-01-12 23:12:00,9.0,0.0,-100.00,West,270,14.0,20.0,62,0.00,,,0.00,,2013-01-12 23:12:00,
2013-01-12 23:22:00,9.0,0.0,-100.00,West,280,14.0,18.0,66,0.00,,,0.00,,2013-01-12 23:22:00,
2013-01-12 23:33:00,8.0,1.0,-100.00,West,280,12.0,16.0,70,0.00,,,0.00,,2013-01-12 23:33:00,
2013-01-12 23:42:00,8.0,0.0,-100.00,WNW,300,12.0,17.0,69,0.00,,,0.00,,2013-01-12 23:42:00,
2013-01-12 23:52:00,8.0,0.0,-100.00,WNW,285,16.0,20.0,66,0.00,,,0.00,,2013-01-12 23:52:00,